sensor_id;sensor_type;location;lat;lon;timestamp;pressure;altitude;pressure_sealevel;temperature;humidity
53480;BME280;56133;51.012;-1.648;2022-11-15T00:00:04;99397.22;;;9.45;100.00
53480;BME280;56133;51.012;-1.648;2022-11-15T00:02:29;99395.75;;;9.50;100.00
53480;BME280;56133;51.012;-1.648;2022-11-15T00:04:55;99397.75;;;9.48;100.00
53480;BME280;56133;51.012;-1.648;2022-11-15T00:07:20;99393.59;;;9.54;100.00
53480;BME280;56133;51.012;-1.648;2022-11-15T00:09:46;99370.84;;;9.58;100.00
53480;BME280;56133;51.012;-1.648;2022-11-15T00:12:11;99366.38;;;9.67;100.00
53480;BME280;56133;51.012;-1.648;2022-11-15T00:14:36;99363.41;;;9.70;100.00
53480;BME280;56133;51.012;-1.648;2022-11-15T00:17:02;99364.75;;;9.74;100.00
53480;BME280;56133;51.012;-1.648;2022-11-15T00:19:27;99346.16;;;9.72;100.00
53480;BME280;56133;51.012;-1.648;2022-11-15T00:21:53;99346.16;;;9.72;100.00
53480;BME280;56133;51.012;-1.648;2022-11-15T00:24:18;99340.25;;;9.69;100.00
53480;BME280;56133;51.012;-1.648;2022-11-15T00:26:44;99327.97;;;9.84;100.00
53480;BME280;56133;51.012;-1.648;2022-11-15T00:29:09;99322.63;;;9.93;100.00
53480;BME280;56133;51.012;-1.648;2022-11-15T00:31:34;99310.59;;;9.97;100.00
53480;BME280;56133;51.012;-1.648;2022-11-15T00:34:00;99302.91;;;10.02;100.00
53480;BME280;56133;51.012;-1.648;2022-11-15T00:36:25;99299.22;;;10.03;100.00
53480;BME280;56133;51.012;-1.648;2022-11-15T00:38:51;99291.88;;;10.13;100.00
53480;BME280;56133;51.012;-1.648;2022-11-15T00:41:16;99290.75;;;10.16;100.00
53480;BME280;56133;51.012;-1.648;2022-11-15T00:43:42;99278.66;;;10.20;100.00
53480;BME280;56133;51.012;-1.648;2022-11-15T00:46:09;99275.47;;;10.25;100.00
53480;BME280;56133;51.012;-1.648;2022-11-15T00:48:35;99266.09;;;10.21;100.00
53480;BME280;56133;51.012;-1.648;2022-11-15T00:51:01;99266.41;;;10.17;100.00
53480;BME280;56133;51.012;-1.648;2022-11-15T00:53:27;99259.38;;;10.25;100.00
53480;BME280;56133;51.012;-1.648;2022-11-15T00:55:53;99254.00;;;10.25;100.00
53480;BME280;56133;51.012;-1.648;2022-11-15T00:58:18;99251.00;;;10.20;100.00
53480;BME280;56133;51.012;-1.648;2022-11-15T01:00:44;99243.13;;;10.26;100.00
53480;BME280;56133;51.012;-1.648;2022-11-15T01:03:09;99229.19;;;10.23;100.00
53480;BME280;56133;51.012;-1.648;2022-11-15T01:05:37;99231.09;;;10.39;100.00
53480;BME280;56133;51.012;-1.648;2022-11-15T01:08:03;99223.19;;;10.37;100.00
53480;BME280;56133;51.012;-1.648;2022-11-15T01:10:28;99216.53;;;10.41;100.00
53480;BME280;56133;51.012;-1.648;2022-11-15T01:12:54;99217.53;;;10.48;100.00
53480;BME280;56133;51.012;-1.648;2022-11-15T01:15:20;99206.66;;;10.58;100.00
53480;BME280;56133;51.012;-1.648;2022-11-15T01:17:45;99201.78;;;10.62;100.00
53480;BME280;56133;51.012;-1.648;2022-11-15T01:20:11;99187.69;;;10.68;100.00
53480;BME280;56133;51.012;-1.648;2022-11-15T01:22:37;99185.34;;;10.65;100.00
53480;BME280;56133;51.012;-1.648;2022-11-15T01:25:02;99182.81;;;10.72;100.00
53480;BME280;56133;51.012;-1.648;2022-11-15T01:27:28;99178.13;;;10.74;100.00
53480;BME280;56133;51.012;-1.648;2022-11-15T01:29:53;99183.66;;;10.64;100.00
53480;BME280;56133;51.012;-1.648;2022-11-15T01:32:19;99177.78;;;10.60;100.00
53480;BME280;56133;51.012;-1.648;2022-11-15T01:34:44;99167.03;;;10.69;100.00
53480;BME280;56133;51.012;-1.648;2022-11-15T01:37:10;99165.00;;;10.54;100.00
53480;BME280;56133;51.012;-1.648;2022-11-15T01:39:35;99163.16;;;10.46;100.00
53480;BME280;56133;51.012;-1.648;2022-11-15T01:42:01;99163.00;;;10.56;100.00
53480;BME280;56133;51.012;-1.648;2022-11-15T01:44:49;99144.69;;;10.60;100.00
53480;BME280;56133;51.012;-1.648;2022-11-15T01:47:19;99149.25;;;10.59;100.00
53480;BME280;56133;51.012;-1.648;2022-11-15T01:52:20;99143.38;;;10.64;100.00
53480;BME280;56133;51.012;-1.648;2022-11-15T01:54:49;99138.31;;;10.61;100.00
53480;BME280;56133;51.012;-1.648;2022-11-15T01:57:16;99134.81;;;10.60;100.00
53480;BME280;56133;51.012;-1.648;2022-11-15T01:59:43;99121.03;;;10.55;100.00
53480;BME280;56133;51.012;-1.648;2022-11-15T02:02:09;99117.38;;;10.48;100.00
53480;BME280;56133;51.012;-1.648;2022-11-15T02:04:39;99112.47;;;10.43;100.00
53480;BME280;56133;51.012;-1.648;2022-11-15T02:07:08;99107.47;;;10.40;100.00
53480;BME280;56133;51.012;-1.648;2022-11-15T02:09:36;99108.75;;;10.36;100.00
53480;BME280;56133;51.012;-1.648;2022-11-15T02:12:02;99103.38;;;10.36;100.00
53480;BME280;56133;51.012;-1.648;2022-11-15T02:14:28;99098.69;;;10.30;100.00
53480;BME280;56133;51.012;-1.648;2022-11-15T02:36:00;99052.53;;;10.10;100.00
53480;BME280;56133;51.012;-1.648;2022-11-15T02:42:13;99034.94;;;10.07;100.00
53480;BME280;56133;51.012;-1.648;2022-11-15T02:45:03;99030.91;;;10.11;100.00
53480;BME280;56133;51.012;-1.648;2022-11-15T02:47:33;99024.72;;;10.11;100.00
53480;BME280;56133;51.012;-1.648;2022-11-15T02:50:12;99025.38;;;10.13;100.00
53480;BME280;56133;51.012;-1.648;2022-11-15T02:52:38;99024.38;;;10.14;100.00
53480;BME280;56133;51.012;-1.648;2022-11-15T02:55:04;99012.13;;;10.11;100.00
53480;BME280;56133;51.012;-1.648;2022-11-15T02:57:51;99008.09;;;10.15;100.00
53480;BME280;56133;51.012;-1.648;2022-11-15T03:00:19;99009.59;;;10.18;100.00
53480;BME280;56133;51.012;-1.648;2022-11-15T03:05:51;99006.91;;;10.18;100.00
53480;BME280;56133;51.012;-1.648;2022-11-15T03:08:31;99001.38;;;10.20;100.00
53480;BME280;56133;51.012;-1.648;2022-11-15T03:11:02;98987.28;;;10.17;100.00
53480;BME280;56133;51.012;-1.648;2022-11-15T03:14:06;98988.78;;;10.20;100.00
53480;BME280;56133;51.012;-1.648;2022-11-15T03:16:53;98981.09;;;10.25;100.00
53480;BME280;56133;51.012;-1.648;2022-11-15T03:20:00;98981.25;;;10.24;100.00
53480;BME280;56133;51.012;-1.648;2022-11-15T03:22:27;98979.59;;;10.23;100.00
53480;BME280;56133;51.012;-1.648;2022-11-15T03:24:58;98963.97;;;10.26;100.00
53480;BME280;56133;51.012;-1.648;2022-11-15T03:27:31;98961.44;;;10.25;100.00
53480;BME280;56133;51.012;-1.648;2022-11-15T03:30:02;98952.22;;;10.27;100.00
53480;BME280;56133;51.012;-1.648;2022-11-15T03:32:31;98942.50;;;10.26;100.00
53480;BME280;56133;51.012;-1.648;2022-11-15T03:37:59;98935.28;;;10.27;100.00
53480;BME280;56133;51.012;-1.648;2022-11-15T03:40:37;98929.22;;;10.25;100.00
53480;BME280;56133;51.012;-1.648;2022-11-15T03:43:20;98922.84;;;10.26;100.00
53480;BME280;56133;51.012;-1.648;2022-11-15T03:45:55;98927.06;;;10.28;100.00
53480;BME280;56133;51.012;-1.648;2022-11-15T03:48:27;98924.53;;;10.27;100.00
53480;BME280;56133;51.012;-1.648;2022-11-15T03:50:56;98919.03;;;10.28;100.00
53480;BME280;56133;51.012;-1.648;2022-11-15T03:53:21;98904.06;;;10.26;100.00
53480;BME280;56133;51.012;-1.648;2022-11-15T03:55:47;98902.06;;;10.28;100.00
53480;BME280;56133;51.012;-1.648;2022-11-15T03:58:12;98888.97;;;10.25;100.00
53480;BME280;56133;51.012;-1.648;2022-11-15T04:00:38;98886.81;;;10.28;100.00
53480;BME280;56133;51.012;-1.648;2022-11-15T04:03:03;98874.56;;;10.26;100.00
53480;BME280;56133;51.012;-1.648;2022-11-15T04:05:29;98873.91;;;10.24;100.00
53480;BME280;56133;51.012;-1.648;2022-11-15T04:07:54;98862.81;;;10.27;100.00
53480;BME280;56133;51.012;-1.648;2022-11-15T04:10:19;98859.44;;;10.25;100.00
53480;BME280;56133;51.012;-1.648;2022-11-15T04:12:45;98853.59;;;10.21;100.00
53480;BME280;56133;51.012;-1.648;2022-11-15T04:15:16;98848.75;;;10.16;100.00
53480;BME280;56133;51.012;-1.648;2022-11-15T04:17:44;98842.72;;;10.14;100.00
53480;BME280;56133;51.012;-1.648;2022-11-15T04:20:16;98842.72;;;10.14;100.00
53480;BME280;56133;51.012;-1.648;2022-11-15T04:23:04;98837.03;;;10.09;100.00
53480;BME280;56133;51.012;-1.648;2022-11-15T04:25:53;98825.28;;;10.10;100.00
53480;BME280;56133;51.012;-1.648;2022-11-15T04:28:19;98819.09;;;10.10;100.00
53480;BME280;56133;51.012;-1.648;2022-11-15T04:30:45;98821.94;;;10.08;100.00
53480;BME280;56133;51.012;-1.648;2022-11-15T04:33:10;98813.06;;;10.08;100.00
53480;BME280;56133;51.012;-1.648;2022-11-15T04:35:36;98805.69;;;10.10;100.00
53480;BME280;56133;51.012;-1.648;2022-11-15T04:38:02;98792.75;;;10.13;100.00
53480;BME280;56133;51.012;-1.648;2022-11-15T04:40:28;98788.72;;;10.09;100.00
53480;BME280;56133;51.012;-1.648;2022-11-15T04:42:54;98793.09;;;10.10;100.00
53480;BME280;56133;51.012;-1.648;2022-11-15T04:45:20;98786.56;;;10.13;100.00
53480;BME280;56133;51.012;-1.648;2022-11-15T04:47:46;98787.56;;;10.12;100.00
53480;BME280;56133;51.012;-1.648;2022-11-15T04:50:12;98788.56;;;10.11;100.00
53480;BME280;56133;51.012;-1.648;2022-11-15T04:52:43;98789.56;;;10.10;100.00
53480;BME280;56133;51.012;-1.648;2022-11-15T04:55:10;98786.56;;;10.13;100.00
53480;BME280;56133;51.012;-1.648;2022-11-15T04:57:37;98769.44;;;10.14;100.00
53480;BME280;56133;51.012;-1.648;2022-11-15T05:00:05;98773.13;;;10.13;100.00
53480;BME280;56133;51.012;-1.648;2022-11-15T05:02:30;98772.13;;;10.14;100.00
53480;BME280;56133;51.012;-1.648;2022-11-15T05:05:16;98748.81;;;10.14;100.00
53480;BME280;56133;51.012;-1.648;2022-11-15T05:07:41;98759.53;;;10.14;100.00
53480;BME280;56133;51.012;-1.648;2022-11-15T05:10:07;98747.78;;;10.15;100.00
53480;BME280;56133;51.012;-1.648;2022-11-15T05:12:33;98732.16;;;10.19;100.00
53480;BME280;56133;51.012;-1.648;2022-11-15T05:14:58;98736.53;;;10.20;100.00
53480;BME280;56133;51.012;-1.648;2022-11-15T05:17:23;98732.00;;;10.21;100.00
53480;BME280;56133;51.012;-1.648;2022-11-15T05:19:49;98733.69;;;10.22;100.00
53480;BME280;56133;51.012;-1.648;2022-11-15T05:22:14;98729.16;;;10.22;100.00
53480;BME280;56133;51.012;-1.648;2022-11-15T05:24:40;98715.56;;;10.24;100.00
53480;BME280;56133;51.012;-1.648;2022-11-15T05:27:05;98719.72;;;10.26;100.00
53480;BME280;56133;51.012;-1.648;2022-11-15T05:29:30;98709.81;;;10.27;100.00
53480;BME280;56133;51.012;-1.648;2022-11-15T05:31:56;98709.00;;;10.26;100.00
53480;BME280;56133;51.012;-1.648;2022-11-15T05:34:21;98711.34;;;10.29;100.00
53480;BME280;56133;51.012;-1.648;2022-11-15T05:36:48;98701.25;;;10.31;100.00
53480;BME280;56133;51.012;-1.648;2022-11-15T05:39:14;98695.72;;;10.33;100.00
53480;BME280;56133;51.012;-1.648;2022-11-15T05:41:47;98694.34;;;10.37;100.00
53480;BME280;56133;51.012;-1.648;2022-11-15T05:44:16;98690.69;;;10.38;100.00
53480;BME280;56133;51.012;-1.648;2022-11-15T05:46:43;98679.41;;;10.43;100.00
53480;BME280;56133;51.012;-1.648;2022-11-15T05:49:12;98679.41;;;10.43;100.00
53480;BME280;56133;51.012;-1.648;2022-11-15T05:51:39;98677.19;;;10.46;100.00
53480;BME280;56133;51.012;-1.648;2022-11-15T05:54:05;98663.22;;;10.51;100.00
53480;BME280;56133;51.012;-1.648;2022-11-15T05:56:30;98654.00;;;10.54;100.00
53480;BME280;56133;51.012;-1.648;2022-11-15T05:58:57;98648.44;;;10.55;100.00
53480;BME280;56133;51.012;-1.648;2022-11-15T06:01:24;98651.13;;;10.55;100.00
53480;BME280;56133;51.012;-1.648;2022-11-15T06:03:50;98640.22;;;10.57;100.00
53480;BME280;56133;51.012;-1.648;2022-11-15T06:06:15;98648.56;;;10.62;100.00
53480;BME280;56133;51.012;-1.648;2022-11-15T06:08:41;98641.50;;;10.61;100.00
53480;BME280;56133;51.012;-1.648;2022-11-15T06:11:07;98632.44;;;10.62;100.00
53480;BME280;56133;51.012;-1.648;2022-11-15T06:13:33;98617.66;;;10.66;100.00
53480;BME280;56133;51.012;-1.648;2022-11-15T06:15:59;98630.88;;;10.68;100.00
53480;BME280;56133;51.012;-1.648;2022-11-15T06:18:25;98618.97;;;10.70;100.00
53480;BME280;56133;51.012;-1.648;2022-11-15T06:20:50;98615.25;;;10.71;100.00
53480;BME280;56133;51.012;-1.648;2022-11-15T06:23:16;98616.09;;;10.72;100.00
53480;BME280;56133;51.012;-1.648;2022-11-15T06:25:41;98612.56;;;10.71;100.00
53480;BME280;56133;51.012;-1.648;2022-11-15T06:28:07;98614.91;;;10.74;100.00
53480;BME280;56133;51.012;-1.648;2022-11-15T06:30:33;98609.13;;;10.77;100.00
53480;BME280;56133;51.012;-1.648;2022-11-15T06:33:03;98607.97;;;10.80;100.00
53480;BME280;56133;51.012;-1.648;2022-11-15T06:35:30;98613.81;;;10.84;100.00
53480;BME280;56133;51.012;-1.648;2022-11-15T06:37:56;98618.16;;;10.85;100.00
53480;BME280;56133;51.012;-1.648;2022-11-15T06:40:21;98616.13;;;10.87;100.00
53480;BME280;56133;51.012;-1.648;2022-11-15T06:42:47;98598.53;;;10.84;100.00
53480;BME280;56133;51.012;-1.648;2022-11-15T06:45:12;98610.41;;;10.90;100.00
53480;BME280;56133;51.012;-1.648;2022-11-15T06:47:45;98598.44;;;10.92;100.00
53480;BME280;56133;51.012;-1.648;2022-11-15T06:50:11;98588.34;;;10.95;100.00
53480;BME280;56133;51.012;-1.648;2022-11-15T06:52:37;98586.69;;;10.93;100.00
53480;BME280;56133;51.012;-1.648;2022-11-15T06:55:02;98588.00;;;10.98;100.00
53480;BME280;56133;51.012;-1.648;2022-11-15T06:57:28;98581.75;;;10.97;100.00
53480;BME280;56133;51.012;-1.648;2022-11-15T06:59:53;98582.63;;;10.98;100.00
53480;BME280;56133;51.012;-1.648;2022-11-15T07:02:19;98575.38;;;10.98;100.00
53480;BME280;56133;51.012;-1.648;2022-11-15T07:04:44;98569.84;;;11.00;100.00
53480;BME280;56133;51.012;-1.648;2022-11-15T07:07:09;98563.25;;;11.02;100.00
53480;BME280;56133;51.012;-1.648;2022-11-15T07:09:35;98553.50;;;11.01;100.00
53480;BME280;56133;51.012;-1.648;2022-11-15T07:12:00;98555.19;;;11.02;100.00
53480;BME280;56133;51.012;-1.648;2022-11-15T07:14:26;98546.00;;;10.97;100.00
53480;BME280;56133;51.012;-1.648;2022-11-15T07:16:51;98543.78;;;11.00;100.00
53480;BME280;56133;51.012;-1.648;2022-11-15T07:19:16;98534.72;;;11.01;100.00
53480;BME280;56133;51.012;-1.648;2022-11-15T07:21:42;98546.28;;;11.02;100.00
53480;BME280;56133;51.012;-1.648;2022-11-15T07:24:07;98530.34;;;11.00;100.00
53480;BME280;56133;51.012;-1.648;2022-11-15T07:26:33;98533.88;;;11.01;100.00
53480;BME280;56133;51.012;-1.648;2022-11-15T07:28:58;98527.66;;;11.00;100.00
53480;BME280;56133;51.012;-1.648;2022-11-15T07:31:24;98521.47;;;11.00;100.00
53480;BME280;56133;51.012;-1.648;2022-11-15T07:33:50;98532.84;;;11.02;100.00
53480;BME280;56133;51.012;-1.648;2022-11-15T07:36:16;98531.66;;;11.04;100.00
53480;BME280;56133;51.012;-1.648;2022-11-15T07:38:41;98514.50;;;11.05;100.00
53480;BME280;56133;51.012;-1.648;2022-11-15T07:41:07;98523.59;;;11.04;100.00
53480;BME280;56133;51.012;-1.648;2022-11-15T07:43:33;98519.88;;;11.05;100.00
53480;BME280;56133;51.012;-1.648;2022-11-15T07:46:03;98515.53;;;11.04;100.00
53480;BME280;56133;51.012;-1.648;2022-11-15T07:48:30;98514.69;;;11.04;100.00
53480;BME280;56133;51.012;-1.648;2022-11-15T07:50:55;98509.50;;;11.02;100.00
53480;BME280;56133;51.012;-1.648;2022-11-15T07:53:20;98506.44;;;11.05;100.00
53480;BME280;56133;51.012;-1.648;2022-11-15T07:55:46;98512.66;;;11.06;100.00
53480;BME280;56133;51.012;-1.648;2022-11-15T07:58:11;98515.69;;;11.03;100.00
53480;BME280;56133;51.012;-1.648;2022-11-15T08:00:37;98504.78;;;11.04;100.00
53480;BME280;56133;51.012;-1.648;2022-11-15T08:05:31;98482.28;;;11.05;100.00
53480;BME280;56133;51.012;-1.648;2022-11-15T08:07:57;98490.34;;;11.05;100.00
53480;BME280;56133;51.012;-1.648;2022-11-15T08:10:23;98488.47;;;11.06;100.00
53480;BME280;56133;51.012;-1.648;2022-11-15T08:12:56;98485.97;;;11.04;100.00
53480;BME280;56133;51.012;-1.648;2022-11-15T08:15:22;98482.44;;;11.04;100.00
53480;BME280;56133;51.012;-1.648;2022-11-15T08:17:53;98482.91;;;11.07;100.00
53480;BME280;56133;51.012;-1.648;2022-11-15T08:20:18;98485.78;;;11.06;100.00
53480;BME280;56133;51.012;-1.648;2022-11-15T08:22:44;98493.66;;;11.07;100.00
53480;BME280;56133;51.012;-1.648;2022-11-15T08:25:10;98486.44;;;11.08;100.00
53480;BME280;56133;51.012;-1.648;2022-11-15T08:27:35;98498.84;;;11.09;100.00
53480;BME280;56133;51.012;-1.648;2022-11-15T08:30:01;98485.22;;;11.11;100.00
53480;BME280;56133;51.012;-1.648;2022-11-15T08:32:27;98475.97;;;11.13;100.00
53480;BME280;56133;51.012;-1.648;2022-11-15T08:34:52;98464.19;;;11.14;100.00
53480;BME280;56133;51.012;-1.648;2022-11-15T08:37:18;98466.69;;;11.16;100.00
53480;BME280;56133;51.012;-1.648;2022-11-15T08:39:43;98467.31;;;11.18;100.00
53480;BME280;56133;51.012;-1.648;2022-11-15T08:42:08;98464.63;;;11.18;100.00
53480;BME280;56133;51.012;-1.648;2022-11-15T08:44:34;98462.16;;;11.16;100.00
53480;BME280;56133;51.012;-1.648;2022-11-15T08:46:59;98454.72;;;11.18;100.00
53480;BME280;56133;51.012;-1.648;2022-11-15T08:49:25;98458.44;;;11.17;100.00
53480;BME280;56133;51.012;-1.648;2022-11-15T08:51:50;98452.06;;;11.18;100.00
53480;BME280;56133;51.012;-1.648;2022-11-15T08:54:15;98444.16;;;11.17;100.00
53480;BME280;56133;51.012;-1.648;2022-11-15T08:56:41;98442.31;;;11.17;100.00
53480;BME280;56133;51.012;-1.648;2022-11-15T08:59:06;98445.81;;;11.18;100.00
53480;BME280;56133;51.012;-1.648;2022-11-15T09:01:32;98430.56;;;11.18;100.00
53480;BME280;56133;51.012;-1.648;2022-11-15T09:03:57;98426.81;;;11.19;100.00
53480;BME280;56133;51.012;-1.648;2022-11-15T09:06:23;98423.09;;;11.20;100.00
53480;BME280;56133;51.012;-1.648;2022-11-15T09:08:48;98427.47;;;11.21;100.00
53480;BME280;56133;51.012;-1.648;2022-11-15T09:11:14;98426.44;;;11.22;100.00
53480;BME280;56133;51.012;-1.648;2022-11-15T09:13:41;98418.56;;;11.21;100.00
53480;BME280;56133;51.012;-1.648;2022-11-15T09:16:07;98412.19;;;11.22;100.00
53480;BME280;56133;51.012;-1.648;2022-11-15T09:18:32;98403.75;;;11.25;100.00
53480;BME280;56133;51.012;-1.648;2022-11-15T09:20:58;98397.34;;;11.26;100.00
53480;BME280;56133;51.012;-1.648;2022-11-15T09:23:25;98400.66;;;11.28;100.00
53480;BME280;56133;51.012;-1.648;2022-11-15T09:25:51;98381.84;;;11.28;100.00
53480;BME280;56133;51.012;-1.648;2022-11-15T09:28:17;98382.41;;;11.23;100.00
53480;BME280;56133;51.012;-1.648;2022-11-15T09:30:42;98375.00;;;11.26;100.00
53480;BME280;56133;51.012;-1.648;2022-11-15T09:33:12;98360.34;;;11.28;100.00
53480;BME280;56133;51.012;-1.648;2022-11-15T09:35:38;98369.44;;;11.27;100.00
53480;BME280;56133;51.012;-1.648;2022-11-15T09:38:03;98369.88;;;11.31;100.00
53480;BME280;56133;51.012;-1.648;2022-11-15T09:40:31;98372.19;;;11.34;100.00
53480;BME280;56133;51.012;-1.648;2022-11-15T09:50:57;98347.81;;;11.35;100.00
53480;BME280;56133;51.012;-1.648;2022-11-15T09:53:46;98332.50;;;11.36;100.00
53480;BME280;56133;51.012;-1.648;2022-11-15T09:56:19;98326.56;;;11.41;100.00
53480;BME280;56133;51.012;-1.648;2022-11-15T10:04:06;98321.41;;;11.46;100.00
53480;BME280;56133;51.012;-1.648;2022-11-15T10:06:32;98321.41;;;11.46;100.00
53480;BME280;56133;51.012;-1.648;2022-11-15T10:09:23;98311.94;;;11.50;100.00
53480;BME280;56133;51.012;-1.648;2022-11-15T10:11:50;98292.09;;;11.51;100.00
53480;BME280;56133;51.012;-1.648;2022-11-15T10:14:22;98301.44;;;11.55;100.00
53480;BME280;56133;51.012;-1.648;2022-11-15T10:24:42;98282.72;;;11.68;100.00
53480;BME280;56133;51.012;-1.648;2022-11-15T10:27:12;98279.38;;;11.66;100.00
53480;BME280;56133;51.012;-1.648;2022-11-15T10:29:46;98263.28;;;11.73;100.00
53480;BME280;56133;51.012;-1.648;2022-11-15T10:32:13;98265.81;;;11.75;100.00
53480;BME280;56133;51.012;-1.648;2022-11-15T10:34:39;98275.94;;;11.73;100.00
53480;BME280;56133;51.012;-1.648;2022-11-15T10:37:04;98272.63;;;11.77;100.00
53480;BME280;56133;51.012;-1.648;2022-11-15T10:39:30;98275.13;;;11.79;100.00
53480;BME280;56133;51.012;-1.648;2022-11-15T10:41:56;98262.94;;;11.83;100.00
53480;BME280;56133;51.012;-1.648;2022-11-15T10:44:27;98256.78;;;11.89;100.00
53480;BME280;56133;51.012;-1.648;2022-11-15T10:49:24;98243.16;;;11.97;100.00
53480;BME280;56133;51.012;-1.648;2022-11-15T10:52:37;98224.19;;;11.99;100.00
53480;BME280;56133;51.012;-1.648;2022-11-15T10:54:48;98217.59;;;12.08;100.00
53480;BME280;56133;51.012;-1.648;2022-11-15T10:57:19;98205.59;;;12.11;100.00
53480;BME280;56133;51.012;-1.648;2022-11-15T10:59:50;98206.03;;;12.14;100.00
53480;BME280;56133;51.012;-1.648;2022-11-15T11:02:35;98209.34;;;12.17;100.00
53480;BME280;56133;51.012;-1.648;2022-11-15T11:05:03;98203.13;;;12.16;100.00
53480;BME280;56133;51.012;-1.648;2022-11-15T11:07:31;98224.25;;;12.19;100.00
53480;BME280;56133;51.012;-1.648;2022-11-15T11:09:59;98243.50;;;12.16;100.00
53480;BME280;56133;51.012;-1.648;2022-11-15T11:12:33;98231.69;;;12.10;100.00
53480;BME280;56133;51.012;-1.648;2022-11-15T11:15:09;98224.50;;;11.89;100.00
53480;BME280;56133;51.012;-1.648;2022-11-15T11:20:25;98198.97;;;12.13;100.00
53480;BME280;56133;51.012;-1.648;2022-11-15T11:33:48;98186.50;;;12.61;100.00
53480;BME280;56133;51.012;-1.648;2022-11-15T11:36:27;98193.56;;;12.82;100.00
53480;BME280;56133;51.012;-1.648;2022-11-15T11:41:46;98203.53;;;12.95;100.00
53480;BME280;56133;51.012;-1.648;2022-11-15T11:46:55;98201.06;;;13.20;100.00
53480;BME280;56133;51.012;-1.648;2022-11-15T11:49:31;98206.88;;;13.31;100.00
53480;BME280;56133;51.012;-1.648;2022-11-15T11:52:15;98210.63;;;13.50;100.00
53480;BME280;56133;51.012;-1.648;2022-11-15T11:54:52;98212.91;;;13.40;100.00
53480;BME280;56133;51.012;-1.648;2022-11-15T12:00:20;98211.44;;;13.10;100.00
53480;BME280;56133;51.012;-1.648;2022-11-15T12:08:07;98239.16;;;12.70;100.00
53480;BME280;56133;51.012;-1.648;2022-11-15T12:10:35;98250.31;;;12.60;100.00
53480;BME280;56133;51.012;-1.648;2022-11-15T12:13:09;98246.09;;;12.44;100.00
53480;BME280;56133;51.012;-1.648;2022-11-15T12:18:28;98255.25;;;12.50;100.00
53480;BME280;56133;51.012;-1.648;2022-11-15T12:21:16;98264.03;;;12.24;100.00
53480;BME280;56133;51.012;-1.648;2022-11-15T12:23:50;98261.69;;;12.56;100.00
53480;BME280;56133;51.012;-1.648;2022-11-15T12:26:23;98264.44;;;12.69;100.00
53480;BME280;56133;51.012;-1.648;2022-11-15T12:34:02;98272.38;;;12.36;100.00
53480;BME280;56133;51.012;-1.648;2022-11-15T12:36:38;98277.09;;;12.27;100.00
53480;BME280;56133;51.012;-1.648;2022-11-15T12:41:36;98278.09;;;11.91;100.00
53480;BME280;56133;51.012;-1.648;2022-11-15T12:44:03;98284.34;;;11.63;100.00
53480;BME280;56133;51.012;-1.648;2022-11-15T13:17:56;98319.31;;;11.41;100.00
53480;BME280;56133;51.012;-1.648;2022-11-15T13:20:32;98311.84;;;11.36;100.00
53480;BME280;56133;51.012;-1.648;2022-11-15T13:23:08;98313.19;;;11.26;100.00
53480;BME280;56133;51.012;-1.648;2022-11-15T13:33:17;98306.34;;;12.02;100.00
53480;BME280;56133;51.012;-1.648;2022-11-15T13:35:47;98303.31;;;11.83;100.00
53480;BME280;56133;51.012;-1.648;2022-11-15T13:38:28;98306.28;;;11.66;100.00
53480;BME280;56133;51.012;-1.648;2022-11-15T13:40:55;98301.19;;;11.50;100.00
53480;BME280;56133;51.012;-1.648;2022-11-15T13:48:29;98296.72;;;11.57;100.00
53480;BME280;56133;51.012;-1.648;2022-11-15T13:50:55;98302.72;;;11.59;100.00
53480;BME280;56133;51.012;-1.648;2022-11-15T13:53:21;98296.59;;;11.44;100.00
53480;BME280;56133;51.012;-1.648;2022-11-15T13:55:47;98287.75;;;11.50;100.00
53480;BME280;56133;51.012;-1.648;2022-11-15T13:58:13;98296.88;;;11.56;100.00
53480;BME280;56133;51.012;-1.648;2022-11-15T14:00:43;98295.09;;;11.63;100.00
53480;BME280;56133;51.012;-1.648;2022-11-15T14:03:19;98287.34;;;11.53;100.00
53480;BME280;56133;51.012;-1.648;2022-11-15T14:06:10;98284.88;;;11.51;100.00
53480;BME280;56133;51.012;-1.648;2022-11-15T14:11:26;98283.94;;;11.37;100.00
53480;BME280;56133;51.012;-1.648;2022-11-15T14:16:39;98272.47;;;11.50;100.00
53480;BME280;56133;51.012;-1.648;2022-11-15T14:19:08;98284.41;;;11.48;100.00
53480;BME280;56133;51.012;-1.648;2022-11-15T14:21:34;98274.50;;;11.48;100.00
53480;BME280;56133;51.012;-1.648;2022-11-15T14:24:18;98272.25;;;11.52;100.00
53480;BME280;56133;51.012;-1.648;2022-11-15T14:26:44;98267.09;;;11.50;100.00
53480;BME280;56133;51.012;-1.648;2022-11-15T14:29:29;98269.06;;;11.42;100.00
53480;BME280;56133;51.012;-1.648;2022-11-15T14:32:15;98274.97;;;11.30;100.00
53480;BME280;56133;51.012;-1.648;2022-11-15T14:34:41;98274.09;;;11.23;100.00
53480;BME280;56133;51.012;-1.648;2022-11-15T14:37:28;98268.59;;;11.10;100.00
53480;BME280;56133;51.012;-1.648;2022-11-15T14:39:54;98266.06;;;11.08;100.00
53480;BME280;56133;51.012;-1.648;2022-11-15T14:42:21;98269.22;;;11.12;100.00
53480;BME280;56133;51.012;-1.648;2022-11-15T14:44:47;98274.34;;;11.06;100.00
53480;BME280;56133;51.012;-1.648;2022-11-15T14:47:12;98275.88;;;11.16;100.00
53480;BME280;56133;51.012;-1.648;2022-11-15T14:49:38;98274.19;;;11.15;100.00
53480;BME280;56133;51.012;-1.648;2022-11-15T14:52:23;98270.13;;;11.19;100.00
53480;BME280;56133;51.012;-1.648;2022-11-15T14:54:49;98264.69;;;11.12;100.00
53480;BME280;56133;51.012;-1.648;2022-11-15T14:57:15;98268.00;;;11.14;100.00
53480;BME280;56133;51.012;-1.648;2022-11-15T14:59:40;98277.91;;;11.14;100.00
53480;BME280;56133;51.012;-1.648;2022-11-15T15:02:19;98279.72;;;11.06;100.00
53480;BME280;56133;51.012;-1.648;2022-11-15T15:04:45;98274.34;;;11.06;100.00
53480;BME280;56133;51.012;-1.648;2022-11-15T15:07:11;98275.09;;;11.00;100.00
53480;BME280;56133;51.012;-1.648;2022-11-15T15:09:36;98271.31;;;10.95;100.00
53480;BME280;56133;51.012;-1.648;2022-11-15T15:12:01;98264.53;;;10.77;100.00